createdAt,value
2018-12-16T00:00:49.224Z,90.86
2018-12-16T00:03:21.495Z,90.54
2018-12-16T00:05:56.156Z,91.15
2018-12-16T00:08:36.036Z,92.00
2018-12-16T00:11:09.324Z,89.47
2018-12-16T00:13:42.328Z,88.88
2018-12-16T00:16:19.701Z,89.22
2018-12-16T00:18:56.745Z,88.16
2018-12-16T00:21:29.318Z,88.65
2018-12-16T00:24:02.033Z,88.63
2018-12-16T00:29:07.218Z,90.00
2018-12-16T00:44:18.888Z,90.70
2018-12-16T00:49:25.261Z,91.06
2018-12-16T00:51:57.655Z,90.50
2018-12-16T00:54:33.765Z,90.91
2018-12-16T00:57:06.717Z,90.80
2018-12-16T00:59:39.916Z,90.09
2018-12-16T01:02:19.107Z,90.15
2018-12-16T01:04:53.151Z,90.83
2018-12-16T01:07:40.305Z,91.02
2018-12-16T01:10:14.963Z,89.83
2018-12-16T01:12:48.175Z,88.74
2018-12-16T01:15:21.477Z,87.65
2018-12-16T01:17:57.746Z,88.38
2018-12-16T01:20:36.571Z,89.28
2018-12-16T01:23:12.461Z,89.42
2018-12-16T01:25:49.981Z,88.40
2018-12-16T01:28:24.434Z,87.98
2018-12-16T01:31:02.160Z,89.43
2018-12-16T01:33:35.303Z,88.83
2018-12-16T01:36:06.801Z,89.76
2018-12-16T01:38:37.204Z,90.18
2018-12-16T01:41:10.278Z,90.29
2018-12-16T01:43:43.400Z,89.89
2018-12-16T01:46:21.359Z,90.14
2018-12-16T01:48:57.845Z,89.74
2018-12-16T01:59:01.175Z,90.33
2018-12-16T02:01:40.258Z,90.38
2018-12-16T02:04:23.078Z,89.82
2018-12-16T02:06:57.940Z,90.70
2018-12-16T02:09:35.726Z,90.88
2018-12-16T02:12:15.845Z,90.13
2018-12-16T02:14:58.111Z,89.56
2018-12-16T02:17:32.092Z,89.70
2018-12-16T02:20:10.233Z,90.40
2018-12-16T02:22:45.206Z,91.34
2018-12-16T02:25:22.363Z,91.47
2018-12-16T02:27:55.632Z,91.82
2018-12-16T02:30:35.524Z,91.12
2018-12-16T02:33:12.186Z,91.35
2018-12-16T02:35:45.189Z,90.61
2018-12-16T02:38:18.868Z,90.00
2018-12-16T02:40:57.944Z,89.81
2018-12-16T02:43:32.900Z,90.63
2018-12-16T02:46:11.304Z,90.96
2018-12-16T02:48:47.681Z,90.02
2018-12-16T02:51:23.457Z,90.23
2018-12-16T02:53:57.137Z,90.01
2018-12-16T02:56:38.703Z,90.41
2018-12-16T02:59:20.387Z,90.71
2018-12-16T03:14:31.640Z,89.39
2018-12-16T03:17:11.085Z,90.03
2018-12-16T03:19:46.827Z,90.22
2018-12-16T03:22:19.468Z,90.71
2018-12-16T03:24:52.020Z,90.24
2018-12-16T03:27:24.592Z,89.98
2018-12-16T03:29:57.447Z,89.84
2018-12-16T03:32:31.395Z,89.47
2018-12-16T03:35:08.679Z,91.04
2018-12-16T03:37:46.112Z,92.08
2018-12-16T03:40:20.445Z,90.76
2018-12-16T03:42:54.500Z,90.93
2018-12-16T03:45:27.806Z,90.72
2018-12-16T03:48:06.419Z,90.93
2018-12-16T03:50:39.421Z,90.93
2018-12-16T03:53:19.470Z,91.13
2018-12-16T03:55:47.783Z,90.72
2018-12-16T03:58:20.230Z,90.56
2018-12-16T04:00:53.001Z,90.22
2018-12-16T04:03:30.026Z,90.78
2018-12-16T04:06:04.597Z,91.33
2018-12-16T04:08:38.590Z,92.30
2018-12-16T04:11:11.754Z,91.93
2018-12-16T04:13:49.244Z,91.77
2018-12-16T04:16:24.059Z,92.35
2018-12-16T04:21:49.440Z,92.41
2018-12-16T04:24:29.289Z,91.90
2018-12-16T04:27:05.293Z,91.74
2018-12-16T04:29:42.633Z,91.02
2018-12-16T04:32:29.345Z,90.90
2018-12-16T04:35:10.594Z,90.79
2018-12-16T04:38:00.795Z,91.17
2018-12-16T04:40:37.851Z,91.63
2018-12-16T04:43:13.717Z,92.30
2018-12-16T04:45:56.265Z,91.75
2018-12-16T04:48:27.806Z,91.14
2018-12-16T04:51:00.924Z,91.37
2018-12-16T04:53:38.033Z,90.99
2018-12-16T04:56:10.405Z,90.65
2018-12-16T04:58:48.762Z,90.86
2018-12-16T05:01:25.577Z,90.82
2018-12-16T05:03:58.467Z,90.36
2018-12-16T05:06:34.764Z,90.61
2018-12-16T05:09:08.605Z,91.14
2018-12-16T05:11:42.909Z,91.45
2018-12-16T05:14:15.992Z,91.68
2018-12-16T05:16:49.069Z,91.61
2018-12-16T05:19:21.005Z,91.77
2018-12-16T05:21:58.114Z,91.28
2018-12-16T05:24:30.869Z,91.18
2018-12-16T05:27:03.667Z,90.61
2018-12-16T05:29:45.797Z,90.30
2018-12-16T05:32:29.226Z,89.81
2018-12-16T05:35:11.962Z,89.56
2018-12-16T05:37:49.686Z,90.11
2018-12-16T05:40:22.921Z,90.27
2018-12-16T05:42:57.591Z,90.79
2018-12-16T05:45:38.331Z,91.24
2018-12-16T05:48:17.480Z,92.06
2018-12-16T05:50:58.710Z,92.18
2018-12-16T05:53:36.844Z,91.60
2018-12-16T05:56:12.476Z,91.56
2018-12-16T05:58:56.240Z,91.51
2018-12-16T06:01:33.543Z,92.09
2018-12-16T06:04:14.851Z,90.98
2018-12-16T06:06:53.388Z,91.72
2018-12-16T06:09:29.828Z,90.84
2018-12-16T06:12:05.558Z,90.58
2018-12-16T06:14:41.070Z,90.67
2018-12-16T06:17:21.747Z,90.54
2018-12-16T06:19:56.797Z,90.52
2018-12-16T06:25:01.879Z,91.35
2018-12-16T06:27:38.777Z,90.77
2018-12-16T06:30:19.566Z,91.49
2018-12-16T06:32:54.119Z,92.91
2018-12-16T06:35:29.916Z,92.55
2018-12-16T06:38:02.969Z,92.64
2018-12-16T06:40:38.538Z,92.33
2018-12-16T06:43:13.722Z,92.26
2018-12-16T06:45:51.486Z,92.36
2018-12-16T06:48:32.437Z,92.32
2018-12-16T06:51:10.177Z,92.39
2018-12-16T06:53:43.373Z,92.15
2018-12-16T06:56:16.365Z,92.74
2018-12-16T06:58:50.536Z,92.51
2018-12-16T07:01:23.565Z,92.75
2018-12-16T07:03:57.564Z,93.42
2018-12-16T07:06:31.931Z,93.18
2018-12-16T07:09:08.417Z,93.47
2018-12-16T07:11:42.001Z,92.28
2018-12-16T07:14:16.654Z,92.28
2018-12-16T07:16:50.095Z,91.35
2018-12-16T07:19:28.015Z,89.84
2018-12-16T07:22:02.636Z,88.86
2018-12-16T07:24:36.094Z,87.74
2018-12-16T07:27:09.907Z,87.78
2018-12-16T07:29:43.324Z,87.42
2018-12-16T07:32:16.328Z,86.19
2018-12-16T07:34:53.359Z,86.04
2018-12-16T07:37:27.006Z,85.30
2018-12-16T07:40:05.953Z,86.23
2018-12-16T07:42:39.740Z,84.96
2018-12-16T07:45:16.561Z,85.28
2018-12-16T07:47:47.742Z,86.55
2018-12-16T07:50:21.710Z,84.81
2018-12-16T07:53:02.208Z,83.26
2018-12-16T07:55:42.174Z,84.46
2018-12-16T07:58:18.761Z,83.80
2018-12-16T08:00:57.079Z,81.55
2018-12-16T08:03:30.119Z,82.97
2018-12-16T08:06:06.448Z,83.80
2018-12-16T08:08:39.607Z,85.24
2018-12-16T08:11:17.528Z,85.43
2018-12-16T08:13:57.100Z,84.42
2018-12-16T08:16:30.259Z,85.77
2018-12-16T08:19:08.071Z,84.18
2018-12-16T08:21:45.223Z,83.41
2018-12-16T08:24:22.917Z,83.11
2018-12-16T08:26:53.632Z,81.85
2018-12-16T08:37:03.593Z,80.29
2018-12-16T08:39:46.532Z,80.91
2018-12-16T08:42:24.085Z,80.62
2018-12-16T08:45:07.511Z,80.54
2018-12-16T08:47:46.023Z,80.18
2018-12-16T08:50:21.793Z,79.41
2018-12-16T08:52:56.966Z,79.62
2018-12-16T08:55:31.772Z,80.69
2018-12-16T08:58:08.463Z,80.67
2018-12-16T09:00:46.424Z,78.84
2018-12-16T09:03:25.201Z,78.05
2018-12-16T09:06:07.064Z,77.78
2018-12-16T09:08:42.807Z,76.96
2018-12-16T09:11:21.138Z,75.10
2018-12-16T09:13:58.668Z,75.48
2018-12-16T09:16:35.205Z,76.23
2018-12-16T09:19:19.025Z,78.32
2018-12-16T09:21:55.416Z,78.50
2018-12-16T09:24:28.150Z,78.32
2018-12-16T09:27:01.971Z,78.46
2018-12-16T09:29:35.882Z,77.62
2018-12-16T09:32:09.388Z,77.93
2018-12-16T09:34:44.940Z,77.11
2018-12-16T09:37:18.386Z,76.36
2018-12-16T09:39:55.443Z,75.97
2018-12-16T09:42:29.137Z,75.90
2018-12-16T09:45:01.827Z,76.14
2018-12-16T09:47:36.355Z,74.75
2018-12-16T09:50:15.358Z,74.03
2018-12-16T09:52:48.322Z,73.45
2018-12-16T09:55:21.542Z,72.07
2018-12-16T09:57:54.948Z,72.37
2018-12-16T10:00:28.481Z,73.74
2018-12-16T10:03:05.972Z,73.38
2018-12-16T10:05:38.912Z,71.62
2018-12-16T10:08:12.089Z,69.62
2018-12-16T10:10:48.379Z,71.46
2018-12-16T10:13:20.722Z,71.39
2018-12-16T10:15:57.161Z,71.88
2018-12-16T10:18:39.470Z,71.94
2018-12-16T10:21:15.213Z,72.17
2018-12-16T10:23:47.528Z,69.74
2018-12-16T10:26:20.554Z,70.27
2018-12-16T10:28:53.633Z,69.33
2018-12-16T10:31:26.078Z,71.04
2018-12-16T10:34:02.446Z,70.58
2018-12-16T10:36:35.612Z,68.41
2018-12-16T10:39:10.951Z,69.22
2018-12-16T10:41:44.947Z,71.23
2018-12-16T10:44:18.117Z,72.52
2018-12-16T10:46:52.510Z,71.14
2018-12-16T10:49:25.691Z,70.54
2018-12-16T10:51:59.445Z,71.56
2018-12-16T10:54:32.653Z,70.52
2018-12-16T10:57:09.071Z,70.75
2018-12-16T10:59:42.220Z,69.48
2018-12-16T11:02:15.376Z,68.75
2018-12-16T11:04:48.375Z,67.33
2018-12-16T11:07:20.507Z,66.16
2018-12-16T11:09:52.752Z,68.67
2018-12-16T11:12:26.234Z,67.53
2018-12-16T11:14:58.982Z,68.10
2018-12-16T11:17:32.043Z,70.01
2018-12-16T11:20:08.522Z,71.24
2018-12-16T11:22:43.221Z,70.83
2018-12-16T11:25:16.756Z,69.83
2018-12-16T11:27:48.233Z,70.04
2018-12-16T11:30:21.746Z,70.55
2018-12-16T11:32:56.657Z,70.33
2018-12-16T11:35:30.916Z,71.65
2018-12-16T11:38:04.445Z,70.75
2018-12-16T11:43:11.009Z,71.82
2018-12-16T11:45:43.332Z,72.76
2018-12-16T11:48:20.415Z,73.21
2018-12-16T11:50:52.922Z,74.18
2018-12-16T11:53:30.100Z,75.08
2018-12-16T11:56:09.234Z,76.01
2018-12-16T11:58:43.746Z,76.61
2018-12-16T12:01:22.512Z,77.00
2018-12-16T12:03:59.320Z,77.35
2018-12-16T12:06:38.680Z,77.71
2018-12-16T12:09:15.422Z,76.54
2018-12-16T12:11:47.356Z,76.71
2018-12-16T12:14:25.928Z,76.82
2018-12-16T12:17:01.610Z,78.03
2018-12-16T12:19:42.439Z,77.48
2018-12-16T12:22:17.499Z,77.70
2018-12-16T12:24:50.798Z,78.07
2018-12-16T12:27:27.857Z,78.79
2018-12-16T12:30:00.484Z,79.52
2018-12-16T12:32:39.171Z,79.40
2018-12-16T12:35:16.499Z,79.42
2018-12-16T12:37:51.352Z,80.13
2018-12-16T12:40:24.024Z,80.92
2018-12-16T12:42:58.361Z,80.57
2018-12-16T12:48:03.480Z,81.14
2018-12-16T12:50:37.611Z,81.29
2018-12-16T12:53:12.059Z,81.88
2018-12-16T12:55:46.045Z,81.85
2018-12-16T12:58:18.698Z,82.50
2018-12-16T13:00:53.089Z,81.32
2018-12-16T13:03:27.251Z,81.97
2018-12-16T13:06:03.980Z,82.24
2018-12-16T13:08:38.515Z,81.73
2018-12-16T13:11:12.262Z,81.01
2018-12-16T13:13:50.346Z,80.76
2018-12-16T13:16:25.077Z,80.88
2018-12-16T13:19:01.410Z,80.78
2018-12-16T13:21:40.709Z,80.73
2018-12-16T13:24:19.419Z,80.42
2018-12-16T13:26:53.560Z,80.25
2018-12-16T13:29:26.974Z,80.90
2018-12-16T13:31:59.474Z,81.63
2018-12-16T13:34:39.246Z,82.44
2018-12-16T13:37:14.850Z,81.77
2018-12-16T13:39:47.447Z,82.77
2018-12-16T13:42:20.606Z,82.84
2018-12-16T13:44:53.396Z,82.83
2018-12-16T13:47:28.424Z,82.87
2018-12-16T13:55:03.825Z,83.26
2018-12-16T14:02:36.783Z,82.39
2018-12-16T14:05:09.689Z,82.26
2018-12-16T14:07:42.637Z,82.90
2018-12-16T14:10:15.216Z,83.03
2018-12-16T14:12:45.637Z,82.92
2018-12-16T14:15:22.529Z,83.88
2018-12-16T14:17:53.600Z,83.46
2018-12-16T14:20:30.899Z,83.28
2018-12-16T14:23:04.213Z,83.29
2018-12-16T14:25:38.233Z,82.93
2018-12-16T14:28:11.164Z,83.61
2018-12-16T14:30:44.577Z,83.38
2018-12-16T14:33:18.232Z,82.90
2018-12-16T14:35:51.378Z,83.71
2018-12-16T14:38:29.100Z,83.64
2018-12-16T14:41:01.845Z,84.00
2018-12-16T14:43:35.165Z,83.61
2018-12-16T14:46:12.525Z,83.71
2018-12-16T14:48:46.417Z,83.46
2018-12-16T14:51:22.574Z,84.16
2018-12-16T14:53:54.969Z,84.00
2018-12-16T14:56:28.044Z,83.92
2018-12-16T14:59:04.523Z,84.48
2018-12-16T15:01:42.728Z,84.51
2018-12-16T15:04:15.889Z,84.61
2018-12-16T15:06:48.396Z,84.41
2018-12-16T15:09:21.776Z,84.81
2018-12-16T15:11:55.047Z,84.85
2018-12-16T15:14:32.594Z,84.77
2018-12-16T15:17:10.965Z,84.59
2018-12-16T15:19:43.818Z,84.74
2018-12-16T15:22:14.209Z,84.46
2018-12-16T15:24:46.963Z,85.01
2018-12-16T15:27:24.135Z,84.68
2018-12-16T15:30:02.060Z,84.74
2018-12-16T15:32:36.986Z,84.66
2018-12-16T15:35:15.060Z,85.19
2018-12-16T15:37:47.679Z,84.89
2018-12-16T15:40:24.011Z,84.79
2018-12-16T15:42:56.093Z,84.95
2018-12-16T15:45:32.629Z,84.89
2018-12-16T15:48:08.889Z,85.60
2018-12-16T15:50:42.627Z,85.68
2018-12-16T15:53:15.655Z,86.13
2018-12-16T15:55:48.347Z,86.72
2018-12-16T15:58:22.028Z,86.65
2018-12-16T16:00:58.244Z,87.05
2018-12-16T16:03:32.192Z,86.40
2018-12-16T16:06:05.594Z,86.46
2018-12-16T16:08:37.975Z,86.70
2018-12-16T16:11:10.260Z,86.91
2018-12-16T16:13:43.547Z,87.04
2018-12-16T16:16:17.636Z,87.02
2018-12-16T16:18:53.968Z,87.86
2018-12-16T16:21:31.530Z,88.01
2018-12-16T16:24:04.093Z,88.32
2018-12-16T16:26:37.490Z,87.34
2018-12-16T16:29:14.478Z,87.09
2018-12-16T16:31:47.727Z,87.46
2018-12-16T16:34:25.199Z,87.87
2018-12-16T16:37:02.051Z,87.86
2018-12-16T16:39:39.137Z,88.03
2018-12-16T16:42:17.012Z,88.67
2018-12-16T16:44:50.438Z,88.33
2018-12-16T16:47:23.734Z,88.25
2018-12-16T16:49:57.304Z,88.25
2018-12-16T16:52:30.396Z,88.79
2018-12-16T16:55:07.686Z,88.78
2018-12-16T16:57:40.862Z,88.45
2018-12-16T17:00:18.976Z,89.04
2018-12-16T17:02:52.284Z,88.85
2018-12-16T17:05:25.413Z,89.80
2018-12-16T17:07:58.504Z,89.08
2018-12-16T17:10:35.385Z,89.01
2018-12-16T17:13:08.280Z,89.76
2018-12-16T17:15:46.515Z,89.21
2018-12-16T17:18:22.984Z,88.85
2018-12-16T17:21:00.206Z,88.68
2018-12-16T17:23:38.666Z,88.95
2018-12-16T17:26:12.038Z,88.54
2018-12-16T17:28:45.465Z,88.44
2018-12-16T17:31:21.608Z,88.14
2018-12-16T17:33:54.968Z,88.71
2018-12-16T17:36:28.003Z,89.31
2018-12-16T17:39:02.187Z,89.43
2018-12-16T17:41:40.145Z,89.33
2018-12-16T17:44:19.610Z,89.31
2018-12-16T17:46:53.391Z,89.56
2018-12-16T17:49:27.708Z,88.66
2018-12-16T17:52:06.087Z,88.32
2018-12-16T17:54:39.279Z,88.28
2018-12-16T17:57:12.409Z,88.45
2018-12-16T17:59:43.420Z,89.34
2018-12-16T18:02:21.921Z,89.73
2018-12-16T18:04:55.088Z,90.28
2018-12-16T18:07:29.540Z,90.46
2018-12-16T18:10:03.361Z,90.52
2018-12-16T18:22:40.623Z,88.93
2018-12-16T18:25:17.670Z,89.22
2018-12-16T18:27:48.563Z,90.05
2018-12-16T18:30:21.626Z,89.93
2018-12-16T18:32:56.040Z,90.07
2018-12-16T18:35:33.046Z,90.12
2018-12-16T18:38:06.217Z,89.75
2018-12-16T18:40:44.049Z,89.67
2018-12-16T18:43:15.318Z,89.40
2018-12-16T18:45:48.513Z,89.46
2018-12-16T18:48:23.315Z,89.86
2018-12-16T18:50:59.644Z,89.89
2018-12-16T18:53:32.770Z,89.87
2018-12-16T18:56:06.007Z,89.92
2018-12-16T18:58:38.133Z,90.18
2018-12-16T19:01:15.420Z,90.64
2018-12-16T19:03:48.487Z,91.08
2018-12-16T19:06:21.757Z,91.46
2018-12-16T19:08:58.140Z,91.27
2018-12-16T19:11:31.190Z,91.43
2018-12-16T19:14:03.643Z,90.91
2018-12-16T19:16:36.841Z,91.64
2018-12-16T19:19:08.320Z,91.16
2018-12-16T19:21:46.684Z,91.06
2018-12-16T19:24:20.175Z,90.59
2018-12-16T19:26:58.154Z,91.52
2018-12-16T19:29:27.899Z,90.90
2018-12-16T19:32:01.491Z,91.49
2018-12-16T19:34:34.243Z,91.98
2018-12-16T19:37:07.447Z,92.10
2018-12-16T19:39:42.486Z,92.27
2018-12-16T19:42:16.209Z,92.51
2018-12-16T19:44:49.736Z,92.42
2018-12-16T19:47:22.482Z,92.00
2018-12-16T19:49:54.941Z,92.31
2018-12-16T19:52:25.769Z,91.78
2018-12-16T19:55:00.595Z,92.12
2018-12-16T19:57:37.207Z,91.87
2018-12-16T20:00:12.039Z,91.43
2018-12-16T20:02:44.992Z,91.53
2018-12-16T20:05:21.327Z,91.87
2018-12-16T20:07:54.057Z,92.23
2018-12-16T20:10:30.277Z,92.38
2018-12-16T20:13:03.210Z,92.30
2018-12-16T20:15:39.446Z,92.58
2018-12-16T20:18:11.591Z,92.90
2018-12-16T20:20:48.582Z,92.46
2018-12-16T20:23:21.089Z,92.09
2018-12-16T20:25:58.051Z,92.00
2018-12-16T20:28:28.451Z,91.99
2018-12-16T20:31:04.631Z,91.48
2018-12-16T20:33:38.821Z,91.58
2018-12-16T20:36:12.024Z,91.71
2018-12-16T20:38:45.058Z,92.23
2018-12-16T20:41:18.706Z,92.15
2018-12-16T20:43:52.235Z,92.55
2018-12-16T20:46:25.230Z,91.51
2018-12-16T20:48:58.557Z,91.92
2018-12-16T20:51:31.362Z,91.87
2018-12-16T20:54:04.578Z,91.66
2018-12-16T20:56:37.840Z,92.34
2018-12-16T20:59:14.834Z,92.37
2018-12-16T21:01:47.999Z,92.88
2018-12-16T21:04:21.075Z,92.23
2018-12-16T21:06:54.756Z,91.76
2018-12-16T21:09:27.688Z,91.45
2018-12-16T21:12:08.929Z,91.61
2018-12-16T21:14:47.289Z,91.50
2018-12-16T21:17:25.373Z,91.26
2018-12-16T21:20:03.013Z,91.54
2018-12-16T21:22:36.164Z,92.03
2018-12-16T21:25:13.304Z,92.27
2018-12-16T21:27:46.264Z,92.62
2018-12-16T21:30:23.492Z,92.47
2018-12-16T21:32:57.474Z,92.10
2018-12-16T21:35:31.360Z,91.87
2018-12-16T21:38:10.053Z,92.65
2018-12-16T21:40:46.796Z,92.52
2018-12-16T21:43:20.948Z,92.38
2018-12-16T21:45:59.311Z,92.98
2018-12-16T21:48:33.226Z,93.00
2018-12-16T21:51:06.364Z,92.71
2018-12-16T21:53:42.873Z,92.68
2018-12-16T21:56:14.043Z,92.87
2018-12-16T21:58:51.634Z,93.47
2018-12-16T22:01:28.792Z,92.94
2018-12-16T22:04:06.490Z,92.94
2018-12-16T22:06:43.162Z,91.70
2018-12-16T22:09:16.447Z,90.59
2018-12-16T22:11:49.687Z,91.02
2018-12-16T22:14:23.663Z,91.35
2018-12-16T22:16:56.822Z,91.23
2018-12-16T22:19:29.878Z,91.04
2018-12-16T22:22:04.787Z,91.07
2018-12-16T22:24:38.112Z,91.65
2018-12-16T22:27:16.591Z,91.95
2018-12-16T22:29:51.479Z,91.62
2018-12-16T22:32:24.787Z,92.40
2018-12-16T22:34:57.718Z,92.47
2018-12-16T22:37:30.343Z,92.19
2018-12-16T22:40:03.184Z,92.31
2018-12-16T22:42:36.370Z,92.52
2018-12-16T22:45:14.119Z,92.30
2018-12-16T22:47:46.636Z,91.74
2018-12-16T22:50:19.539Z,92.33
2018-12-16T22:52:52.743Z,92.11
2018-12-16T22:55:25.553Z,92.44
2018-12-16T22:57:57.964Z,92.82
2018-12-16T23:00:31.251Z,93.12
2018-12-16T23:03:06.075Z,93.22
2018-12-16T23:05:39.538Z,93.19
2018-12-16T23:08:13.570Z,93.14
2018-12-16T23:10:46.752Z,93.36
2018-12-16T23:13:23.015Z,92.68
2018-12-16T23:15:55.525Z,92.31
2018-12-16T23:18:28.087Z,91.83
2018-12-16T23:21:05.903Z,92.14
2018-12-16T23:23:39.357Z,92.26
2018-12-16T23:26:12.499Z,91.47
2018-12-16T23:28:45.663Z,91.47
2018-12-16T23:31:18.909Z,92.04
2018-12-16T23:33:52.685Z,92.00
2018-12-16T23:36:29.102Z,92.44
2018-12-16T23:39:07.682Z,91.16
2018-12-16T23:41:42.835Z,91.46
2018-12-16T23:44:21.553Z,91.46
2018-12-16T23:47:00.318Z,92.04
2018-12-16T23:49:33.300Z,91.97
2018-12-16T23:52:06.034Z,91.62
2018-12-16T23:54:44.409Z,91.50
2018-12-16T23:57:21.053Z,91.75
2018-12-16T23:59:55.164Z,91.97
